• Join FlightAware (Why Join?)
  • Login
  • US Flag 
04:40AM EDT


 

Airport Tracker/Info


-or-


 

Live Flight TrackerFlight Track Log ✈ TF-LLX ✈ 14-Apr-2013 ✈ EKCH / CPH - BIKF / KEF

Flight Track Log - Related Links

Times and Time Zones

All times are in EDT time to prevent confusion due to time zone crossing. See the TF-LLX flight status page for this flight to view local times or setup timezone preferences in your user account.

Time Position Orientation Groundspeed Altitude Reporting Facility
EDT Latitude Longitude Course Direction KTS MPH feet Rate Location/Type
08:43AM 55.5960 12.6090 224° Southwest 161 185 300  Level FlightAware
08:43AM 55.5840 12.5910 220° Southwest 167 192 1,400 3,180 Climbing FlightAware
08:44AM 55.5690 12.5680 221° Southwest 158 182 2,700 2,520 Climbing FlightAware
08:44AM 55.5580 12.5490 224° Southwest 187 215 3,300 1,500 Climbing FlightAware
08:44AM 55.5540 12.5250 254° West 221 254 3,600 1,680 Climbing FlightAware
08:44AM 55.5550 12.5060 275° West 236 272 4,000 2,160 Climbing FlightAware
08:45AM 55.5640 12.4810 302° West 256 295 4,500 2,880 Climbing FlightAware
08:45AM 55.5840 12.4570 326° Northwest 255 293 5,700 3,720 Climbing FlightAware
08:45AM 55.6050 12.4390 334° Northwest 250 288 7,000 2,760 Climbing FlightAware
08:46AM 55.6320 12.4160 334° Northwest 267 307 7,800 1,800 Climbing FlightAware
08:47AM 55.6940 12.3640 335° Northwest 318 366 9,300 1,860 Climbing FlightAware
08:47AM 55.7580 12.3110 335° Northwest 347 399 10,800 2,400 Climbing FlightAware
08:48AM 55.7990 12.2660 328° Northwest 348 400 12,300 2,880 Climbing FlightAware
08:49AM 55.8630 12.1940 328° Northwest 369 425 14,400 2,940 Climbing FlightAware
08:49AM 55.9060 12.1440 327° Northwest 377 434 16,000 2,940 Climbing FlightAware
08:50AM 55.9570 12.0870 328° Northwest 381 438 17,600 2,580 Climbing FlightAware
08:50AM 56.0360 11.9990 328° Northwest 399 459 19,700 2,460 Climbing FlightAware
08:51AM 56.1090 11.9230 330° Northwest 408 470 21,500 2,280 Climbing FlightAware
08:52AM 56.1600 11.8530 323° Northwest 404 465 22,800 2,100 Climbing FlightAware
08:53AM 56.2210 11.7390 314° West 414 476 24,300 1,980 Climbing FlightAware
08:53AM 56.2660 11.6490 312° West 424 488 25,500 1,920 Climbing FlightAware
08:54AM 56.3270 11.5310 313° West 431 496 26,900 1,860 Climbing FlightAware
08:55AM 56.3890 11.4120 313° West 433 498 28,300 2,400 Climbing FlightAware
08:55AM 56.4420 11.3070 312° West 410 472 30,300 2,880 Climbing FlightAware
08:56AM 56.4990 11.1930 312° West 391 450 32,400 2,400 Climbing FlightAware
08:57AM 56.5530 11.0870 313° West 389 448 33,900 1,920 Climbing FlightAware
08:57AM 56.5960 11.0030 313° West 383 441 35,000 1,680 Climbing FlightAware
08:58AM 56.6480 10.8960 312° West 380 437 36,200 1,500 Climbing FlightAware
08:59AM 56.6890 10.8130 312° West 381 438 37,000 1,200 Climbing FlightAware
08:59AM 56.7260 10.7420 314° West 382 440 37,500 960 Climbing FlightAware
09:00AM 56.7610 10.6700 312° West 385 443 38,000 420 Climbing FlightAware
09:00AM 56.8080 10.5750 312° West 391 450 38,000  Level FlightAware
09:01AM 56.8450 10.4980 311° West 390 449 38,000  Level FlightAware
09:01AM 56.8890 10.4110 313° West 392 451 38,000  Level FlightAware
09:02AM 56.9240 10.3360 311° West 389 448 38,000  Level FlightAware
09:03AM 56.9730 10.2360 312° West 390 449 38,000  Level FlightAware
09:03AM 57.0140 10.1540 313° West 391 450 38,000  Level FlightAware
09:04AM 57.0700 10.0360 311° West 396 456 38,000  Level FlightAware
09:05AM 57.1130 9.9480 312° West 395 455 38,000  Level FlightAware
09:05AM 57.1550 9.8590 311° West 396 456 38,000  Level FlightAware
09:06AM 57.1910 9.7830 311° West 397 457 38,000  Level FlightAware
09:06AM 57.2340 9.6940 312° West 393 452 38,000  Level FlightAware
09:07AM 57.2820 9.5910 311° West 397 457 38,000  Level FlightAware
09:07AM 57.3240 9.5020 311° West 396 456 38,000  Level FlightAware
09:08AM 57.3600 9.4250 311° West 397 457 38,000  Level FlightAware
09:09AM 57.4060 9.3280 311° West 395 455 38,000  Level FlightAware
09:09AM 57.4610 9.2080 310° West 394 453 38,000  Level FlightAware
09:10AM 57.5030 9.1210 312° West 394 453 38,000  Level FlightAware
09:11AM 57.5570 9.0030 310° West 393 452 38,000  Level FlightAware
09:11AM 57.5960 8.9180 311° West 393 452 38,000  Level FlightAware
09:12AM 57.6610 8.7770 311° West 391 450 38,000  Level FlightAware
09:13AM 57.7060 8.6770 310° West 390 449 38,000  Level FlightAware
09:14AM 57.7570 8.5630 310° West 390 449 38,000  Level FlightAware
09:15AM 57.8260 8.4080 310° West 390 449 38,000  Level FlightAware
09:15AM 57.8730 8.3050 311° West 391 450 38,000  Level FlightAware
09:16AM 57.9150 8.2110 310° West 391 450 38,000  Level FlightAware
09:17AM 57.9660 8.0960 310° West 391 450 38,000  Level FlightAware
09:17AM 58.0190 7.9760 310° West 389 448 38,000  Level FlightAware
09:18AM 58.0650 7.8720 310° West 389 448 38,000  Level FlightAware
09:18AM 58.1000 7.7930 310° West 389 448 38,000  Level FlightAware
09:19AM 58.1450 7.6880 309° West 390 449 38,000  Level FlightAware
09:20AM 58.1900 7.5860 310° West 390 449 38,000  Level FlightAware
09:21AM 58.2410 7.4670 309° West 390 449 38,000  Level FlightAware
09:21AM 58.2810 7.3760 310° West 390 449 38,000  Level FlightAware
09:22AM 58.3260 7.2700 309° West 391 450 38,000  Level FlightAware
09:23AM 58.3760 7.1520 309° West 392 451 38,000  Level FlightAware
09:23AM 58.4230 7.0420 309° West 391 450 38,000  Level FlightAware
09:24AM 58.4690 6.9320 309° West 392 451 38,000  Level FlightAware
09:25AM 58.5210 6.8110 309° West 391 450 38,000  Level FlightAware
09:25AM 58.5670 6.7000 309° West 392 451 38,000  Level FlightAware
09:26AM 58.6170 6.5800 309° West 394 453 38,000  Level FlightAware
09:27AM 58.6620 6.4700 308° West 397 457 38,000  Level FlightAware
09:27AM 58.7080 6.3590 309° West 398 458 38,000  Level FlightAware
09:28AM 58.7610 6.2310 309° West 398 458 38,000  Level FlightAware
09:29AM 58.8060 6.1200 308° West 397 457 38,000  Level FlightAware
09:30AM 58.8560 5.9970 308° West 397 457 38,000  Level FlightAware
09:30AM 58.9010 5.8860 308° West 397 457 38,000  Level FlightAware
09:31AM 58.9530 5.7570 308° West 397 457 38,000  Level FlightAware
09:32AM 58.9980 5.6440 308° West 398 458 38,000  Level FlightAware
09:32AM 59.0420 5.5340 308° West 397 457 38,000 -1,440 Level FlightAware
09:33AM 59.0684 5.4623 308° West 452 520 36,500  Descending FlightAware UK
09:33AM 59.0880 5.4190 308° West 397 457 38,000 1,560 Climbing FlightAware
09:34AM 59.1320 5.3060 307° West 396 456 38,000 -1,500 Level FlightAware
09:34AM 59.1576 5.2433 307° West 446 513 36,500  Descending FlightAware UK
09:34AM 59.1700 5.2100 307° West 397 457 38,000  Climbing FlightAware
09:35AM 59.2112 5.1069 307° West 446 513 36,500  Descending FlightAware UK
09:35AM 59.2210 5.0780 307° West 398 458 38,000  Climbing FlightAware
09:35AM 59.2436 5.0207 307° West 446 513 36,500  Descending FlightAware UK
09:36AM 59.2650 4.9640 307° West 398 458 38,000  Climbing FlightAware
09:36AM 59.2896 4.9002 307° West 446 513 36,500  Descending FlightAware UK
09:36AM 59.3100 4.8500 307° West 399 459 38,000  Climbing FlightAware
09:37AM 59.3363 4.7801 307° West 444 511 36,500  Descending FlightAware UK
09:37AM 59.3480 4.7510 307° West 400 460 38,000 1,560 Climbing FlightAware
09:38AM 59.3990 4.6180 307° West 402 463 38,000 -1,260 Level FlightAware
09:38AM 59.4302 4.5363 307° West 446 513 36,500  Descending FlightAware UK
09:38AM 59.4440 4.5010 307° West 403 464 38,000 1,680 Climbing FlightAware
09:39AM 59.4880 4.3830 307° West 405 466 38,000 -2,220 Level FlightAware
09:39AM 59.4898 4.3772 307° West 446 513 36,500 -3,600 Descending FlightAware UK
09:39AM 59.5160 4.3059 307° West 446 513 36,500 2,040 Level FlightAware UK
09:40AM 59.5380 4.2500 307° West 408 470 38,000 1,800 Climbing FlightAware
09:40AM 59.5720 4.1600 307° West 409 471 38,000 -1,740 Level FlightAware
09:41AM 59.5973 4.0917 307° West 450 518 36,500  Descending FlightAware UK
09:41AM 59.6150 4.0460 307° West 409 471 38,000  Climbing FlightAware
09:41AM 59.6440 3.9649 307° West 450 518 36,500  Descending FlightAware UK
09:41AM 59.6550 3.9380 307° West 410 472 38,000  Climbing FlightAware
09:42AM 59.6848 3.8569 307° West 454 522 36,500  Descending FlightAware UK
09:42AM 59.7010 3.8140 307° West 410 472 38,000  Climbing FlightAware
09:43AM 59.7378 3.7104 307° West 452 520 36,500  Descending FlightAware UK
09:43AM 59.7500 3.6830 307° West 410 472 38,000  Climbing FlightAware
09:43AM 59.7715 3.6191 307° West 452 520 36,500  Descending FlightAware UK
09:44AM 59.7950 3.5580 307° West 411 473 38,000  Climbing FlightAware
09:44AM 59.8251 3.4727 307° West 452 520 36,500  Descending FlightAware UK
09:44AM 59.8350 3.4480 307° West 411 473 38,000  Climbing FlightAware
09:44AM 59.8587 3.3811 307° West 452 520 36,500 -2,400 Descending FlightAware UK
09:45AM 59.8791 3.3260 306° West 454 522 36,500 3,000 Level FlightAware UK
09:45AM 59.8900 3.2950 306° West 411 473 38,000  Climbing FlightAware
09:45AM 59.9123 3.2344 306° West 454 522 36,500  Descending FlightAware UK
09:46AM 59.9280 3.1900 306° West 412 474 38,000  Climbing FlightAware
09:46AM 59.9654 3.0862 306° West 450 518 36,500  Descending FlightAware UK
09:46AM 59.9710 3.0700 306° West 412 474 38,000  Climbing FlightAware
09:47AM 59.9980 2.9932 306° West 452 520 36,500  Descending FlightAware UK
09:47AM 60.0170 2.9430 306° West 414 476 38,000  Climbing FlightAware
09:47AM 60.0383 2.8815 306° West 454 522 36,500 -2,580 Descending FlightAware UK
09:47AM 60.0576 2.8250 304° West 454 522 36,500  Level FlightAware UK
09:48AM 60.0772 2.7693 305° West 454 522 36,500 4,500 Level FlightAware UK
09:48AM 60.0760 2.7770 305° West 415 478 38,000  Climbing FlightAware
09:48AM 60.0977 2.7123 305° West 452 520 36,500  Descending FlightAware UK
09:48AM 60.1120 2.6730 305° West 416 479 38,000  Climbing FlightAware
09:49AM 60.1504 2.5616 305° West 452 520 36,500 -2,160 Descending FlightAware UK
09:49AM 60.1701 2.5048 305° West 452 520 36,500 4,260 Level FlightAware UK
09:49AM 60.1580 2.5430 305° West 415 478 38,000  Climbing FlightAware
09:49AM 60.1902 2.4482 305° West 456 525 36,500  Descending FlightAware UK
09:50AM 60.2050 2.4090 305° West 408 470 38,000 1,260 Climbing FlightAware
09:51AM 60.2620 2.2430 305° West 406 467 38,000  Level FlightAware
09:51AM 60.3060 2.1170 305° West 405 466 38,000  Level FlightAware
09:52AM 60.3480 1.9920 304° West 404 465 38,000  Level FlightAware
09:53AM 60.3970 1.8510 305° West 403 464 38,000  Level FlightAware
09:53AM 60.4370 1.7320 304° West 407 468 38,000  Level FlightAware
09:54AM 60.4720 1.6280 304° West 408 470 38,000  Level FlightAware
09:55AM 60.5370 1.4320 304° West 408 470 38,000  Level FlightAware
09:56AM 60.5890 1.2780 305° West 411 473 38,000  Level FlightAware
09:56AM 60.6370 1.1310 304° West 419 482 38,000  Level FlightAware
09:57AM 60.6750 1.0180 305° West 422 486 38,000  Level FlightAware
09:58AM 60.7190 0.8810 303° West 424 488 38,000  Level FlightAware
09:58AM 60.7580 0.7620 304° West 424 488 38,000  Level FlightAware
09:59AM 60.8080 0.6070 304° West 423 487 38,000  Level FlightAware
10:00AM 60.8510 0.4720 303° West 423 487 38,000  Level FlightAware
10:01AM 60.9100 0.2890 304° West 422 486 38,000  Level FlightAware
10:01AM 60.9420 0.1840 302° West 422 486 38,000  Level FlightAware
10:02AM 60.9850 0.0460 303° West 422 486 38,000  Level FlightAware
10:02AM 61.0110 -0.0410 302° West 422 486 38,000  Level FlightAware
10:03AM 61.0460 -0.1570 302° West 422 486 38,000  Level FlightAware
10:04AM 61.0810 -0.2740 302° West 422 486 38,000  Level FlightAware
10:04AM 61.1170 -0.3900 303° West 422 486 38,000  Level FlightAware
10:05AM 61.1520 -0.5070 302° West 422 486 38,000  Level FlightAware
10:06AM 61.1960 -0.6530 302° West 422 486 38,000  Level FlightAware
10:07AM 61.2310 -0.7700 302° West 422 486 38,000  Level FlightAware
10:07AM 61.2660 -0.8870 302° West 422 486 38,000  Level FlightAware
10:08AM 61.3100 -1.0330 302° West 422 486 38,000  Level FlightAware
10:09AM 61.3450 -1.1510 302° West 422 486 38,000  Level FlightAware
10:10AM 61.3890 -1.2970 302° West 422 486 38,000  Level FlightAware
10:10AM 61.4330 -1.4440 302° West 422 486 38,000  Level FlightAware
10:11AM 61.4720 -1.9580 279° West 38,000  Level FlightAware
10:13AM 61.5530 -2.3440 294° West  Level Estimated
10:14AM 61.5959 -2.5516 294° West  Level Estimated
10:14AM 61.6360 -2.6800 294° West 443 510 38,000  Level FlightAware
10:15AM 61.6790 -2.8820 294° West 444 511 38,000  Level FlightAware
10:15AM 61.7070 -3.0170 294° West 444 511 38,000  Level FlightAware
10:16AM 61.7630 -3.2710 295° West 443 510 38,000  Level FlightAware
10:17AM 61.8010 -3.4380 296° West 443 510 38,000  Level FlightAware
10:18AM 61.8270 -3.5670 293° West 443 510 38,000  Level FlightAware
10:18AM 61.8720 -3.7680 295° West 444 511 38,000  Level FlightAware
10:19AM 61.9150 -3.9770 294° West 449 517 38,000  Level FlightAware
10:20AM 61.9420 -4.1050 294° West 449 517 38,000  Level FlightAware
10:20AM 61.9730 -4.2590 293° West 449 517 38,000  Level FlightAware
10:21AM 62.0210 -4.4900 294° West 450 518 38,000  Level FlightAware
10:22AM 62.0570 -4.6650 294° West 451 519 38,000  Level FlightAware
10:23AM 62.0910 -4.8360 293° West 452 520 38,000  Level FlightAware
10:23AM 62.1180 -4.9720 293° West 453 521 38,000  Level FlightAware
10:24AM 62.1600 -5.1820 293° West 453 521 38,000  Level FlightAware
10:25AM 62.1890 -5.3380 292° West 453 521 38,000  Level FlightAware
10:26AM 62.2330 -5.5590 293° West 455 524 38,000  Level FlightAware
10:27AM 62.2800 -5.8000 293° West 455 524 38,000  Level FlightAware
10:27AM 62.3120 -5.9720 292° West 455 524 38,000  Level FlightAware
10:28AM 62.3320 -6.0760 293° West 456 525 38,000  Level FlightAware
10:29AM 62.3760 -6.3120 292° West 456 525 38,000  Level FlightAware
10:30AM 62.4190 -6.5450 292° West 456 525 38,000  Level FlightAware
10:30AM 62.4450 -6.6900 291° West 456 525 38,000  Level FlightAware
10:31AM 62.4710 -6.8350 291° West 456 525 38,000  Level FlightAware
10:32AM 62.5030 -7.0160 291° West 456 525 38,000  Level FlightAware
10:32AM 62.5280 -7.1610 291° West 456 525 38,000  Level FlightAware
10:33AM 62.5540 -7.3060 291° West 456 525 38,000  Level FlightAware
10:34AM 62.5860 -7.4880 291° West 456 525 38,000  Level FlightAware
10:35AM 62.6120 -7.6340 291° West 456 525 38,000  Level FlightAware
10:35AM 62.6310 -7.7430 291° West 456 525 38,000  Level FlightAware
10:36AM 62.6570 -7.8890 291° West 456 525 38,000  Level FlightAware
10:37AM 62.6890 -8.0710 291° West 456 525 38,000  Level FlightAware
10:37AM 62.7680 -8.5360 291° West 453 521 38,000  Level FlightAware
10:38AM 62.7960 -8.7090 290° West 454 522 38,000  Level FlightAware
10:39AM 62.8290 -8.9120 290° West 455 524 38,000  Level FlightAware
10:39AM 62.8570 -9.0850 290° West 455 524 38,000  Level FlightAware
10:40AM 62.8880 -9.2760 290° West 456 525 38,000  Level FlightAware
10:41AM 62.9130 -9.4340 289° West 456 525 38,000  Level FlightAware
10:41AM 62.9390 -9.6000 289° West 458 527 38,000  Level FlightAware
10:42AM 62.9740 -9.8290 289° West 458 527 38,000  Level FlightAware
10:43AM 63.0010 -10.0050 289° West 459 528 38,000  Level FlightAware
10:44AM 63.0240 -10.1790 286° West 458 527 38,000  Level FlightAware
10:44AM 63.0440 -10.3370 286° West 458 527 38,000  Level FlightAware
10:45AM 63.0670 -10.5210 286° West 459 528 38,000  Level FlightAware
10:46AM 63.0920 -10.7190 286° West 459 528 38,000  Level FlightAware
10:46AM 63.1200 -10.9450 285° West 460 529 38,000  Level FlightAware
10:47AM 63.1410 -11.1080 286° West 460 529 38,000  Level FlightAware
10:48AM 63.1650 -11.3070 285° West 460 529 38,000  Level FlightAware
10:48AM 63.1840 -11.4710 284° West 461 531 38,000  Level FlightAware
10:49AM 63.2060 -11.6540 285° West 461 531 38,000  Level FlightAware
10:49AM 63.2220 -11.7910 285° West 461 531 38,000  Level FlightAware
10:50AM 63.2480 -12.0190 284° West 461 531 38,000  Level FlightAware
10:51AM 63.2640 -12.1570 285° West 461 531 38,000  Level FlightAware
10:51AM 63.2800 -12.2940 285° West 460 529 38,000  Level FlightAware
10:52AM 63.3070 -12.5410 284° West 458 527 38,000  Level FlightAware
10:53AM 63.3300 -12.7500 284° West 456 525 38,000  Level FlightAware
10:54AM 63.3490 -12.9240 284° West 456 525 38,000  Level FlightAware
10:54AM 63.3690 -13.1100 284° West 456 525 38,000  Level FlightAware
10:55AM 63.3900 -13.3160 283° West 455 524 38,000  Level FlightAware
10:56AM 63.4120 -13.5220 284° West 456 525 38,000  Level FlightAware
10:56AM 63.4270 -13.6640 283° West 457 526 38,000  Level FlightAware
10:57AM 63.4470 -13.8660 283° West 457 526 38,000  Level FlightAware
10:58AM 63.4650 -14.0500 282° West 456 525 38,000  Level FlightAware
10:58AM 63.4790 -14.1890 283° West 456 525 38,000  Level FlightAware
10:59AM 63.4970 -14.3770 282° West 457 526 38,000  Level FlightAware
11:00AM 63.5170 -14.5800 283° West 456 525 38,000  Level FlightAware
11:00AM 63.5300 -14.7230 282° West 455 524 38,000  Level FlightAware
11:01AM 63.5430 -14.8610 282° West 455 524 38,000  Level FlightAware
11:01AM 63.5580 -15.0180 282° West 456 525 38,000  Level FlightAware
11:02AM 63.5770 -15.2310 281° West 455 524 38,000  Level FlightAware
11:03AM 63.5930 -15.4160 281° West 455 524 38,000  Level FlightAware
11:03AM 63.6070 -15.5740 281° West 455 524 38,000  Level FlightAware
11:04AM 63.6230 -15.7590 281° West 456 525 38,000  Level FlightAware
11:05AM 63.6390 -15.9410 281° West 455 524 38,000  Level FlightAware
11:05AM 63.6520 -16.1040 280° West 456 525 38,000  Level FlightAware
11:06AM 63.6690 -16.3000 281° West 457 526 38,000  Level FlightAware
11:07AM 63.6850 -16.5060 280° West 459 528 38,000  Level FlightAware
11:07AM 63.6990 -16.6750 281° West 460 529 38,000  Level FlightAware
11:08AM 63.7140 -16.8630 280° West 459 528 38,000  Level FlightAware
11:08AM 63.7260 -17.0190 280° West 459 528 38,000  Level FlightAware
11:09AM 63.7430 -17.2400 280° West 458 527 38,000  Level FlightAware
11:10AM 63.7560 -17.4240 279° West 459 528 38,000  Level FlightAware
11:10AM 63.7680 -17.5850 280° West 460 529 38,000  Level FlightAware
11:11AM 63.7840 -17.8030 280° West 461 531 38,000  Level FlightAware
11:12AM 63.7940 -17.9460 279° West 461 531 38,000  Level FlightAware
11:12AM 63.8040 -18.0930 279° West 460 529 38,000  Level FlightAware
11:13AM 63.8150 -18.2550 279° West 461 531 38,000  Level FlightAware
11:13AM 63.8290 -18.4690 279° West 460 529 38,000  Level FlightAware
11:14AM 63.8380 -18.6110 278° West 458 527 38,000 -180 Level FlightAware
11:15AM 63.8510 -18.8010 279° West 457 526 37,800 -1,380 Descending FlightAware
11:15AM 63.8610 -18.9630 278° West 465 535 36,300 -2,880 Descending FlightAware
11:16AM 63.8780 -19.2360 278° West 474 545 33,500 -3,360 Descending FlightAware
11:17AM 63.8910 -19.4600 278° West 483 556 30,700 -3,780 Descending FlightAware
11:17AM 63.8980 -19.5810 278° West 486 559 29,100 -3,900 Descending FlightAware
11:18AM 63.9160 -19.8940 278° West 479 551 25,200 -3,480 Descending FlightAware
11:19AM 63.9270 -20.0860 278° West 467 537 23,300 -2,940 Descending FlightAware
11:20AM 63.9380 -20.3020 277° West 455 524 21,100 -2,760 Descending FlightAware
11:20AM 63.9480 -20.4920 277° West 439 505 19,400 -2,640 Descending FlightAware
11:21AM 63.9510 -20.6470 273° West 430 495 17,800 -2,880 Descending FlightAware
11:22AM 63.9450 -20.8070 265° West 422 486 16,100 -2,880 Descending FlightAware
11:22AM 63.9400 -20.9570 266° West 417 480 14,500 -2,640 Descending FlightAware
11:23AM 63.9320 -21.1450 265° West 398 458 12,600 -2,820 Descending FlightAware
11:24AM 63.9240 -21.3380 265° West 388 447 10,300 -3,180 Descending FlightAware
11:24AM 63.9200 -21.4360 265° West 390 449 8,900 -3,000 Descending FlightAware
11:24AM 63.9180 -21.4970 266° West 384 442 8,300 -1,680 Descending FlightAware
11:25AM 63.9130 -21.5940 263° West 362 417 7,800 -1,020 Descending FlightAware
11:25AM 63.9080 -21.7210 265° West 333 383 7,300 -840 Descending FlightAware
11:26AM 63.9040 -21.8080 264° West 313 360 7,000 -840 Descending FlightAware
11:26AM 63.9010 -21.8720 264° West 302 348 6,700 -960 Descending FlightAware
11:27AM 63.8970 -21.9610 264° West 285 328 6,200 -960 Descending FlightAware
11:27AM 63.8950 -22.0080 264° West 278 320 6,000 -780 Descending FlightAware
11:27AM 63.8910 -22.0770 263° West 272 313 5,700 -1,140 Descending FlightAware
11:28AM 63.8870 -22.1800 265° West 272 313 4,900 -1,320 Descending FlightAware
11:28AM 63.8830 -22.2500 263° West 269 310 4,400 -1,320 Descending FlightAware
11:29AM 63.8790 -22.3420 264° West 265 305 3,600 -1,320 Descending FlightAware
11:29AM 63.8770 -22.3890 265° West 265 305 3,300 -540 Descending FlightAware
11:30AM 63.8740 -22.4680 265° West 242 278 3,200 -300 Descending FlightAware
11:30AM 63.8720 -22.5000 262° West 232 267 3,100 -840 Descending FlightAware
11:30AM 63.8730 -22.5380 273° West 223 257 2,800 -960 Descending FlightAware
11:30AM 63.8740 -22.5540 278° West 209 241 2,700 -180 Descending FlightAware
11:31AM 63.8790 -22.6070 282° West 209 241 2,700  Level FlightAware
11:33AM 63.9850 -22.6056 North  Level Estimated
11:34AM 63.9850 -22.6056 90° East  Level Estimated
11:35AM 63.9850 -22.6056 90° East  Level Estimated
11:36AM 63.9850 -22.6056 90° East  Level Estimated
11:37AM 63.9850 -22.6056 90° East  Level Estimated
11:38AM 63.9850 -22.6056 90° East  Level Estimated
11:39AM 63.9850 -22.6056 90° East  Level Estimated
11:40AM 63.9850 -22.6056 90° East  Level Estimated
11:41AM 63.9850 -22.6056 90° East  Level Estimated
11:42AM 63.9850 -22.6056 90° East  Level Estimated
11:43AM 63.9850 -22.6056 90° East  Level Estimated
11:44AM 63.9850 -22.6056 90° East  Level Estimated
11:45AM 63.9850 -22.6056 90° East  Level Estimated